sensor_id;sensor_type;location;lat;lon;timestamp;pressure;altitude;pressure_sealevel;temperature
76007;BMP280;64699;0.000;0.000;2022-12-07T00:00:25;99790.91;;;21.46
76007;BMP280;64699;0.000;0.000;2022-12-07T00:02:51;99788.22;;;21.38
76007;BMP280;64699;0.000;0.000;2022-12-07T00:05:16;99785.09;;;21.34
76007;BMP280;64699;0.000;0.000;2022-12-07T00:07:42;99789.34;;;21.35
76007;BMP280;64699;0.000;0.000;2022-12-07T00:10:08;99785.66;;;21.33
76007;BMP280;64699;0.000;0.000;2022-12-07T00:12:33;99779.41;;;21.32
76007;BMP280;64699;0.000;0.000;2022-12-07T00:14:59;99782.41;;;21.27
76007;BMP280;64699;0.000;0.000;2022-12-07T00:17:25;99777.38;;;21.33
76007;BMP280;64699;0.000;0.000;2022-12-07T00:19:50;99765.59;;;21.32
76007;BMP280;64699;0.000;0.000;2022-12-07T00:22:16;99769.56;;;21.22
76007;BMP280;64699;0.000;0.000;2022-12-07T00:24:41;99765.38;;;21.13
76007;BMP280;64699;0.000;0.000;2022-12-07T00:27:07;99762.69;;;21.06
76007;BMP280;64699;0.000;0.000;2022-12-07T00:29:32;99757.91;;;21.06
76007;BMP280;64699;0.000;0.000;2022-12-07T00:31:58;99763.44;;;21.06
76007;BMP280;64699;0.000;0.000;2022-12-07T00:34:23;99766.75;;;21.05
76007;BMP280;64699;0.000;0.000;2022-12-07T00:36:49;99761.22;;;21.05
76007;BMP280;64699;0.000;0.000;2022-12-07T00:39:15;99767.66;;;21.07
76007;BMP280;64699;0.000;0.000;2022-12-07T00:41:40;99760.09;;;21.08
76007;BMP280;64699;0.000;0.000;2022-12-07T00:44:06;99768.75;;;21.12
76007;BMP280;64699;0.000;0.000;2022-12-07T00:46:32;99768.75;;;21.12
76007;BMP280;64699;0.000;0.000;2022-12-07T00:48:57;99764.66;;;21.13
76007;BMP280;64699;0.000;0.000;2022-12-07T00:51:24;99774.81;;;21.10
76007;BMP280;64699;0.000;0.000;2022-12-07T00:53:50;99767.28;;;21.11
76007;BMP280;64699;0.000;0.000;2022-12-07T00:56:20;99768.56;;;21.10
76007;BMP280;64699;0.000;0.000;2022-12-07T00:58:50;99765.63;;;21.08
76007;BMP280;64699;0.000;0.000;2022-12-07T01:01:16;99760.84;;;21.08
76007;BMP280;64699;0.000;0.000;2022-12-07T01:03:42;99759.38;;;21.07
76007;BMP280;64699;0.000;0.000;2022-12-07T01:06:07;99765.63;;;21.08
76007;BMP280;64699;0.000;0.000;2022-12-07T01:08:33;99763.22;;;21.12
76007;BMP280;64699;0.000;0.000;2022-12-07T01:11:00;99757.50;;;21.10
76007;BMP280;64699;0.000;0.000;2022-12-07T01:13:26;99764.69;;;21.05
76007;BMP280;64699;0.000;0.000;2022-12-07T01:15:55;99757.75;;;21.04
76007;BMP280;64699;0.000;0.000;2022-12-07T01:18:21;99759.69;;;21.11
76007;BMP280;64699;0.000;0.000;2022-12-07T01:20:56;99757.50;;;21.10
76007;BMP280;64699;0.000;0.000;2022-12-07T01:23:21;99753.50;;;21.03
76007;BMP280;64699;0.000;0.000;2022-12-07T01:25:53;99750.56;;;21.01
76007;BMP280;64699;0.000;0.000;2022-12-07T01:28:19;99748.38;;;21.00
76007;BMP280;64699;0.000;0.000;2022-12-07T01:30:44;99752.59;;;21.01
76007;BMP280;64699;0.000;0.000;2022-12-07T01:33:10;99749.13;;;21.00
76007;BMP280;64699;0.000;0.000;2022-12-07T01:35:36;99739.84;;;21.05
76007;BMP280;64699;0.000;0.000;2022-12-07T01:38:01;99739.38;;;20.99
76007;BMP280;64699;0.000;0.000;2022-12-07T01:40:27;99747.47;;;20.97
76007;BMP280;64699;0.000;0.000;2022-12-07T01:42:52;99741.06;;;20.95
76007;BMP280;64699;0.000;0.000;2022-12-07T01:47:48;99733.09;;;20.99
76007;BMP280;64699;0.000;0.000;2022-12-07T01:50:15;99730.34;;;20.99
76007;BMP280;64699;0.000;0.000;2022-12-07T01:52:41;99738.78;;;21.01
76007;BMP280;64699;0.000;0.000;2022-12-07T01:55:09;99741.75;;;21.03
76007;BMP280;64699;0.000;0.000;2022-12-07T01:57:37;99733.78;;;21.07
76007;BMP280;64699;0.000;0.000;2022-12-07T02:00:05;99732.88;;;21.04
76007;BMP280;64699;0.000;0.000;2022-12-07T02:02:33;99735.06;;;21.06
76007;BMP280;64699;0.000;0.000;2022-12-07T02:04:59;99730.84;;;21.05
76007;BMP280;64699;0.000;0.000;2022-12-07T02:07:26;99729.41;;;21.04
76007;BMP280;64699;0.000;0.000;2022-12-07T02:09:52;99722.56;;;21.05
76007;BMP280;64699;0.000;0.000;2022-12-07T02:12:18;99724.38;;;21.10
76007;BMP280;64699;0.000;0.000;2022-12-07T02:14:44;99718.84;;;21.10
76007;BMP280;64699;0.000;0.000;2022-12-07T02:17:21;99724.28;;;21.17
76007;BMP280;64699;0.000;0.000;2022-12-07T02:27:45;99717.34;;;21.09
76007;BMP280;64699;0.000;0.000;2022-12-07T02:30:13;99724.03;;;21.06
76007;BMP280;64699;0.000;0.000;2022-12-07T02:35:40;99724.97;;;21.01
76007;BMP280;64699;0.000;0.000;2022-12-07T02:38:16;99717.44;;;21.01
76007;BMP280;64699;0.000;0.000;2022-12-07T02:40:47;99719.66;;;21.03
76007;BMP280;64699;0.000;0.000;2022-12-07T02:43:34;99708.19;;;21.06
76007;BMP280;64699;0.000;0.000;2022-12-07T02:46:03;99710.38;;;21.08
76007;BMP280;64699;0.000;0.000;2022-12-07T02:48:31;99706.66;;;21.13
76007;BMP280;64699;0.000;0.000;2022-12-07T02:50:58;99707.78;;;21.10
76007;BMP280;64699;0.000;0.000;2022-12-07T02:53:40;99700.09;;;21.08
76007;BMP280;64699;0.000;0.000;2022-12-07T02:56:10;99706.16;;;21.07
76007;BMP280;64699;0.000;0.000;2022-12-07T02:59:22;99706.91;;;21.07
76007;BMP280;64699;0.000;0.000;2022-12-07T03:01:30;99699.44;;;21.00
76007;BMP280;64699;0.000;0.000;2022-12-07T03:04:08;99703.81;;;21.03
76007;BMP280;64699;0.000;0.000;2022-12-07T03:06:42;99700.47;;;21.05
76007;BMP280;64699;0.000;0.000;2022-12-07T03:09:19;99696.50;;;20.98
76007;BMP280;64699;0.000;0.000;2022-12-07T03:11:55;99694.44;;;20.99
76007;BMP280;64699;0.000;0.000;2022-12-07T03:14:25;99693.28;;;21.02
76007;BMP280;64699;0.000;0.000;2022-12-07T03:16:53;99700.84;;;21.01
76007;BMP280;64699;0.000;0.000;2022-12-07T03:19:21;99692.03;;;21.03
76007;BMP280;64699;0.000;0.000;2022-12-07T03:21:53;99696.81;;;21.02
76007;BMP280;64699;0.000;0.000;2022-12-07T03:24:21;99699.03;;;21.04
76007;BMP280;64699;0.000;0.000;2022-12-07T03:26:49;99699.03;;;21.04
76007;BMP280;64699;0.000;0.000;2022-12-07T03:29:21;99693.16;;;21.00
76007;BMP280;64699;0.000;0.000;2022-12-07T03:31:56;99696.31;;;20.96
76007;BMP280;64699;0.000;0.000;2022-12-07T03:34:29;99691.69;;;20.99
76007;BMP280;64699;0.000;0.000;2022-12-07T03:36:57;99693.72;;;20.98
76007;BMP280;64699;0.000;0.000;2022-12-07T03:39:27;99690.22;;;20.98
76007;BMP280;64699;0.000;0.000;2022-12-07T03:41:54;99684.88;;;21.00
76007;BMP280;64699;0.000;0.000;2022-12-07T03:44:21;99690.38;;;21.00
76007;BMP280;64699;0.000;0.000;2022-12-07T03:46:50;99684.06;;;21.07
76007;BMP280;64699;0.000;0.000;2022-12-07T03:49:23;99688.47;;;21.10
76007;BMP280;64699;0.000;0.000;2022-12-07T03:54:19;99683.00;;;21.02
76007;BMP280;64699;0.000;0.000;2022-12-07T03:56:47;99682.25;;;21.02
76007;BMP280;64699;0.000;0.000;2022-12-07T03:59:14;99678.03;;;21.01
76007;BMP280;64699;0.000;0.000;2022-12-07T04:01:44;99673.16;;;21.09
76007;BMP280;64699;0.000;0.000;2022-12-07T04:04:10;99682.97;;;21.27
76007;BMP280;64699;0.000;0.000;2022-12-07T04:06:36;99678.41;;;21.39
76007;BMP280;64699;0.000;0.000;2022-12-07T04:09:02;99673.28;;;21.52
76007;BMP280;64699;0.000;0.000;2022-12-07T04:11:28;99676.59;;;21.67
76007;BMP280;64699;0.000;0.000;2022-12-07T04:13:53;99675.41;;;21.78
76007;BMP280;64699;0.000;0.000;2022-12-07T04:16:37;99679.19;;;21.82
76007;BMP280;64699;0.000;0.000;2022-12-07T04:19:03;99681.69;;;21.88
76007;BMP280;64699;0.000;0.000;2022-12-07T04:21:28;99671.53;;;21.90
76007;BMP280;64699;0.000;0.000;2022-12-07T04:23:54;99661.94;;;21.91
76007;BMP280;64699;0.000;0.000;2022-12-07T04:26:19;99670.97;;;21.92
76007;BMP280;64699;0.000;0.000;2022-12-07T04:28:45;99675.03;;;21.91
76007;BMP280;64699;0.000;0.000;2022-12-07T04:31:11;99670.78;;;21.90
76007;BMP280;64699;0.000;0.000;2022-12-07T04:33:37;99664.41;;;21.87
76007;BMP280;64699;0.000;0.000;2022-12-07T04:36:02;99662.91;;;21.86
76007;BMP280;64699;0.000;0.000;2022-12-07T04:38:28;99658.53;;;21.83
76007;BMP280;64699;0.000;0.000;2022-12-07T04:40:53;99662.47;;;21.80
76007;BMP280;64699;0.000;0.000;2022-12-07T04:43:19;99669.13;;;21.77
76007;BMP280;64699;0.000;0.000;2022-12-07T04:45:45;99671.41;;;21.71
76007;BMP280;64699;0.000;0.000;2022-12-07T04:48:11;99665.53;;;21.67
76007;BMP280;64699;0.000;0.000;2022-12-07T04:50:37;99661.47;;;21.68
76007;BMP280;64699;0.000;0.000;2022-12-07T04:53:03;99665.63;;;21.77
76007;BMP280;64699;0.000;0.000;2022-12-07T04:55:29;99665.03;;;21.78
76007;BMP280;64699;0.000;0.000;2022-12-07T04:57:55;99651.53;;;21.82
76007;BMP280;64699;0.000;0.000;2022-12-07T05:00:20;99661.38;;;21.93
76007;BMP280;64699;0.000;0.000;2022-12-07T05:02:46;99661.09;;;21.98
76007;BMP280;64699;0.000;0.000;2022-12-07T05:05:12;99658.06;;;22.04
76007;BMP280;64699;0.000;0.000;2022-12-07T05:07:37;99653.28;;;22.04
76007;BMP280;64699;0.000;0.000;2022-12-07T05:10:04;99653.72;;;22.01
76007;BMP280;64699;0.000;0.000;2022-12-07T05:12:30;99648.56;;;21.97
76007;BMP280;64699;0.000;0.000;2022-12-07T05:14:55;99643.75;;;21.98
76007;BMP280;64699;0.000;0.000;2022-12-07T05:17:21;99649.72;;;21.94
76007;BMP280;64699;0.000;0.000;2022-12-07T05:19:47;99654.94;;;21.90
76007;BMP280;64699;0.000;0.000;2022-12-07T05:22:12;99648.94;;;21.84
76007;BMP280;64699;0.000;0.000;2022-12-07T05:24:38;99642.91;;;21.78
76007;BMP280;64699;0.000;0.000;2022-12-07T05:27:04;99649.47;;;21.73
76007;BMP280;64699;0.000;0.000;2022-12-07T05:29:30;99650.75;;;21.72
76007;BMP280;64699;0.000;0.000;2022-12-07T05:31:55;99643.44;;;21.67
76007;BMP280;64699;0.000;0.000;2022-12-07T05:34:21;99648.06;;;21.65
76007;BMP280;64699;0.000;0.000;2022-12-07T05:36:47;99651.72;;;21.67
76007;BMP280;64699;0.000;0.000;2022-12-07T05:39:13;99645.94;;;21.73
76007;BMP280;64699;0.000;0.000;2022-12-07T05:41:39;99654.59;;;21.86
76007;BMP280;64699;0.000;0.000;2022-12-07T05:44:23;99648.25;;;21.93
76007;BMP280;64699;0.000;0.000;2022-12-07T05:46:48;99653.84;;;22.03
76007;BMP280;64699;0.000;0.000;2022-12-07T05:49:14;99655.53;;;22.15
76007;BMP280;64699;0.000;0.000;2022-12-07T05:51:39;99658.63;;;22.19
76007;BMP280;64699;0.000;0.000;2022-12-07T05:54:05;99655.66;;;22.17
76007;BMP280;64699;0.000;0.000;2022-12-07T05:56:31;99650.13;;;22.17
76007;BMP280;64699;0.000;0.000;2022-12-07T05:58:57;99659.44;;;22.12
76007;BMP280;64699;0.000;0.000;2022-12-07T06:01:41;99661.19;;;22.17
76007;BMP280;64699;0.000;0.000;2022-12-07T06:04:08;99667.59;;;22.10
76007;BMP280;64699;0.000;0.000;2022-12-07T06:06:33;99663.09;;;22.15
76007;BMP280;64699;0.000;0.000;2022-12-07T06:08:59;99663.97;;;22.17
76007;BMP280;64699;0.000;0.000;2022-12-07T06:11:25;99650.41;;;22.12
76007;BMP280;64699;0.000;0.000;2022-12-07T06:14:09;99653.28;;;22.04
76007;BMP280;64699;0.000;0.000;2022-12-07T06:16:35;99646.72;;;22.00
76007;BMP280;64699;0.000;0.000;2022-12-07T06:19:02;99645.66;;;21.95
76007;BMP280;64699;0.000;0.000;2022-12-07T06:21:28;99656.25;;;21.89
76007;BMP280;64699;0.000;0.000;2022-12-07T06:23:54;99654.59;;;21.86
76007;BMP280;64699;0.000;0.000;2022-12-07T06:26:20;99643.97;;;21.83
76007;BMP280;64699;0.000;0.000;2022-12-07T06:28:46;99656.59;;;21.76
76007;BMP280;64699;0.000;0.000;2022-12-07T06:31:11;99650.13;;;21.64
76007;BMP280;64699;0.000;0.000;2022-12-07T06:33:37;99645.78;;;21.71
76007;BMP280;64699;0.000;0.000;2022-12-07T06:36:03;99649.47;;;21.73
76007;BMP280;64699;0.000;0.000;2022-12-07T06:38:28;99652.31;;;21.66
76007;BMP280;64699;0.000;0.000;2022-12-07T06:40:54;99649.78;;;21.60
76007;BMP280;64699;0.000;0.000;2022-12-07T06:43:20;99652.00;;;21.62
76007;BMP280;64699;0.000;0.000;2022-12-07T06:45:45;99649.53;;;21.66
76007;BMP280;64699;0.000;0.000;2022-12-07T06:48:11;99653.28;;;21.78
76007;BMP280;64699;0.000;0.000;2022-12-07T06:50:37;99648.38;;;21.86
76007;BMP280;64699;0.000;0.000;2022-12-07T06:53:02;99640.44;;;21.99
76007;BMP280;64699;0.000;0.000;2022-12-07T06:55:28;99650.25;;;22.10
76007;BMP280;64699;0.000;0.000;2022-12-07T06:57:54;99645.75;;;22.14
76007;BMP280;64699;0.000;0.000;2022-12-07T07:00:20;99646.81;;;22.19
76007;BMP280;64699;0.000;0.000;2022-12-07T07:02:46;99647.06;;;22.13
76007;BMP280;64699;0.000;0.000;2022-12-07T07:05:13;99648.53;;;22.14
76007;BMP280;64699;0.000;0.000;2022-12-07T07:07:39;99648.06;;;22.08
76007;BMP280;64699;0.000;0.000;2022-12-07T07:10:05;99652.25;;;22.09
76007;BMP280;64699;0.000;0.000;2022-12-07T07:12:31;99653.59;;;22.08
76007;BMP280;64699;0.000;0.000;2022-12-07T07:14:57;99650.81;;;22.08
76007;BMP280;64699;0.000;0.000;2022-12-07T07:17:23;99647.00;;;22.04
76007;BMP280;64699;0.000;0.000;2022-12-07T07:19:48;99654.09;;;21.97
76007;BMP280;64699;0.000;0.000;2022-12-07T07:22:14;99643.75;;;21.98
76007;BMP280;64699;0.000;0.000;2022-12-07T07:24:40;99645.88;;;21.90
76007;BMP280;64699;0.000;0.000;2022-12-07T07:27:06;99643.53;;;21.86
76007;BMP280;64699;0.000;0.000;2022-12-07T07:29:31;99646.00;;;21.82
76007;BMP280;64699;0.000;0.000;2022-12-07T07:31:57;99642.53;;;21.82
76007;BMP280;64699;0.000;0.000;2022-12-07T07:34:22;99648.75;;;21.82
76007;BMP280;64699;0.000;0.000;2022-12-07T07:36:48;99649.72;;;21.94
76007;BMP280;64699;0.000;0.000;2022-12-07T07:39:14;99644.72;;;22.10
76007;BMP280;64699;0.000;0.000;2022-12-07T07:41:39;99646.09;;;22.18
76007;BMP280;64699;0.000;0.000;2022-12-07T07:44:05;99646.50;;;22.15
76007;BMP280;64699;0.000;0.000;2022-12-07T07:46:31;99647.97;;;22.25
76007;BMP280;64699;0.000;0.000;2022-12-07T07:48:58;99647.00;;;22.30
76007;BMP280;64699;0.000;0.000;2022-12-07T07:51:24;99649.91;;;22.32
76007;BMP280;64699;0.000;0.000;2022-12-07T07:53:50;99654.88;;;22.34
76007;BMP280;64699;0.000;0.000;2022-12-07T07:56:15;99650.19;;;22.27
76007;BMP280;64699;0.000;0.000;2022-12-07T07:58:41;99654.53;;;22.20
76007;BMP280;64699;0.000;0.000;2022-12-07T08:01:07;99657.16;;;22.18
76007;BMP280;64699;0.000;0.000;2022-12-07T08:03:33;99649.50;;;22.09
76007;BMP280;64699;0.000;0.000;2022-12-07T08:05:59;99646.72;;;22.09
76007;BMP280;64699;0.000;0.000;2022-12-07T08:08:24;99653.75;;;22.10
76007;BMP280;64699;0.000;0.000;2022-12-07T08:10:50;99646.94;;;22.11
76007;BMP280;64699;0.000;0.000;2022-12-07T08:13:16;99657.25;;;22.11
76007;BMP280;64699;0.000;0.000;2022-12-07T08:15:43;99659.13;;;22.08
76007;BMP280;64699;0.000;0.000;2022-12-07T08:18:09;99651.09;;;22.03
76007;BMP280;64699;0.000;0.000;2022-12-07T08:20:35;99655.44;;;22.06
76007;BMP280;64699;0.000;0.000;2022-12-07T08:23:03;99658.06;;;22.04
76007;BMP280;64699;0.000;0.000;2022-12-07T08:25:29;99657.38;;;22.03
76007;BMP280;64699;0.000;0.000;2022-12-07T08:27:55;99664.34;;;22.04
76007;BMP280;64699;0.000;0.000;2022-12-07T08:30:21;99664.66;;;22.08
76007;BMP280;64699;0.000;0.000;2022-12-07T08:32:47;99662.34;;;22.14
76007;BMP280;64699;0.000;0.000;2022-12-07T08:35:13;99654.63;;;22.13
76007;BMP280;64699;0.000;0.000;2022-12-07T08:37:39;99660.22;;;22.22
76007;BMP280;64699;0.000;0.000;2022-12-07T08:40:05;99660.97;;;22.32
76007;BMP280;64699;0.000;0.000;2022-12-07T08:42:31;99660.78;;;22.21
76007;BMP280;64699;0.000;0.000;2022-12-07T08:45:08;99659.84;;;22.09
76007;BMP280;64699;0.000;0.000;2022-12-07T08:47:35;99663.44;;;22.02
76007;BMP280;64699;0.000;0.000;2022-12-07T08:50:03;99662.97;;;21.96
76007;BMP280;64699;0.000;0.000;2022-12-07T08:52:29;99665.47;;;22.01
76007;BMP280;64699;0.000;0.000;2022-12-07T08:54:55;99663.72;;;21.96
76007;BMP280;64699;0.000;0.000;2022-12-07T08:57:22;99660.47;;;21.90
76007;BMP280;64699;0.000;0.000;2022-12-07T08:59:52;99667.47;;;21.91
76007;BMP280;64699;0.000;0.000;2022-12-07T09:02:17;99667.56;;;21.84
76007;BMP280;64699;0.000;0.000;2022-12-07T09:04:43;99659.28;;;21.84
76007;BMP280;64699;0.000;0.000;2022-12-07T09:07:08;99664.22;;;21.85
76007;BMP280;64699;0.000;0.000;2022-12-07T09:09:34;99658.53;;;21.83
76007;BMP280;64699;0.000;0.000;2022-12-07T09:11:59;99657.66;;;21.81
76007;BMP280;64699;0.000;0.000;2022-12-07T09:14:25;99661.28;;;21.83
76007;BMP280;64699;0.000;0.000;2022-12-07T09:16:51;99652.91;;;21.91
76007;BMP280;64699;0.000;0.000;2022-12-07T09:19:17;99648.44;;;21.95
76007;BMP280;64699;0.000;0.000;2022-12-07T09:21:42;99642.72;;;21.93
76007;BMP280;64699;0.000;0.000;2022-12-07T09:24:07;99643.63;;;21.96
76007;BMP280;64699;0.000;0.000;2022-12-07T09:26:34;99641.75;;;21.98
76007;BMP280;64699;0.000;0.000;2022-12-07T09:29:01;99630.22;;;21.92
76007;BMP280;64699;0.000;0.000;2022-12-07T09:31:27;99625.84;;;21.89
76007;BMP280;64699;0.000;0.000;2022-12-07T09:33:54;99641.94;;;21.83
76007;BMP280;64699;0.000;0.000;2022-12-07T09:36:20;99634.63;;;21.78
76007;BMP280;64699;0.000;0.000;2022-12-07T09:38:46;99640.88;;;21.79
76007;BMP280;64699;0.000;0.000;2022-12-07T09:41:11;99641.47;;;21.77
76007;BMP280;64699;0.000;0.000;2022-12-07T09:43:40;99637.78;;;21.75
76007;BMP280;64699;0.000;0.000;2022-12-07T09:46:08;99638.97;;;21.72
76007;BMP280;64699;0.000;0.000;2022-12-07T09:48:45;99638.53;;;21.75
76007;BMP280;64699;0.000;0.000;2022-12-07T09:53:40;99631.97;;;21.71
76007;BMP280;64699;0.000;0.000;2022-12-07T09:56:08;99622.47;;;21.64
76007;BMP280;64699;0.000;0.000;2022-12-07T09:58:37;99633.94;;;21.61
76007;BMP280;64699;0.000;0.000;2022-12-07T10:03:36;99633.69;;;21.66
76007;BMP280;64699;0.000;0.000;2022-12-07T10:06:04;99634.38;;;21.67
76007;BMP280;64699;0.000;0.000;2022-12-07T10:08:30;99630.19;;;21.66
76007;BMP280;64699;0.000;0.000;2022-12-07T10:10:56;99629.47;;;21.65
76007;BMP280;64699;0.000;0.000;2022-12-07T10:13:33;99628.16;;;21.66
76007;BMP280;64699;0.000;0.000;2022-12-07T10:15:59;99627.25;;;21.64
76007;BMP280;64699;0.000;0.000;2022-12-07T10:18:38;99632.94;;;21.66
76007;BMP280;64699;0.000;0.000;2022-12-07T10:21:19;99629.28;;;21.63
76007;BMP280;64699;0.000;0.000;2022-12-07T10:24:04;99627.84;;;21.62
76007;BMP280;64699;0.000;0.000;2022-12-07T10:28:58;99618.66;;;21.86
76007;BMP280;64699;0.000;0.000;2022-12-07T10:31:24;99617.25;;;21.95
76007;BMP280;64699;0.000;0.000;2022-12-07T10:33:54;99607.56;;;22.03
76007;BMP280;64699;0.000;0.000;2022-12-07T10:36:22;99628.00;;;22.17
76007;BMP280;64699;0.000;0.000;2022-12-07T10:38:48;99619.16;;;22.28
76007;BMP280;64699;0.000;0.000;2022-12-07T10:41:14;99615.97;;;22.32
76007;BMP280;64699;0.000;0.000;2022-12-07T10:43:51;99622.56;;;22.36
76007;BMP280;64699;0.000;0.000;2022-12-07T10:48:58;99627.22;;;22.43
76007;BMP280;64699;0.000;0.000;2022-12-07T10:56:30;99626.97;;;22.48
76007;BMP280;64699;0.000;0.000;2022-12-07T10:59:09;99629.69;;;22.30
76007;BMP280;64699;0.000;0.000;2022-12-07T11:04:18;99629.78;;;22.22
76007;BMP280;64699;0.000;0.000;2022-12-07T11:11:59;99630.75;;;22.17
76007;BMP280;64699;0.000;0.000;2022-12-07T11:14:44;99629.41;;;22.09
76007;BMP280;64699;0.000;0.000;2022-12-07T11:20:03;99623.28;;;22.01
76007;BMP280;64699;0.000;0.000;2022-12-07T11:22:43;99626.44;;;21.97
76007;BMP280;64699;0.000;0.000;2022-12-07T11:28:02;99611.53;;;21.83
76007;BMP280;64699;0.000;0.000;2022-12-07T11:33:19;99623.56;;;21.78
76007;BMP280;64699;0.000;0.000;2022-12-07T11:41:08;99623.59;;;21.61
76007;BMP280;64699;0.000;0.000;2022-12-07T11:46:11;99608.19;;;21.59
76007;BMP280;64699;0.000;0.000;2022-12-07T11:48:38;99613.53;;;21.57
76007;BMP280;64699;0.000;0.000;2022-12-07T11:51:06;99606.72;;;21.58
76007;BMP280;64699;0.000;0.000;2022-12-07T11:53:35;99606.38;;;21.54
76007;BMP280;64699;0.000;0.000;2022-12-07T11:56:17;99609.91;;;21.54
76007;BMP280;64699;0.000;0.000;2022-12-07T12:01:14;99600.56;;;21.50
76007;BMP280;64699;0.000;0.000;2022-12-07T12:03:45;99601.91;;;21.58
76007;BMP280;64699;0.000;0.000;2022-12-07T12:06:11;99599.63;;;21.64
76007;BMP280;64699;0.000;0.000;2022-12-07T12:08:41;99606.75;;;21.67
76007;BMP280;64699;0.000;0.000;2022-12-07T12:13:46;99605.88;;;21.64
76007;BMP280;64699;0.000;0.000;2022-12-07T12:21:21;99595.00;;;21.66
76007;BMP280;64699;0.000;0.000;2022-12-07T12:23:49;99594.84;;;21.64
76007;BMP280;64699;0.000;0.000;2022-12-07T12:26:23;99591.31;;;21.64
76007;BMP280;64699;0.000;0.000;2022-12-07T12:28:50;99584.75;;;21.59
76007;BMP280;64699;0.000;0.000;2022-12-07T12:33:45;99584.03;;;21.59
76007;BMP280;64699;0.000;0.000;2022-12-07T12:38:50;99584.09;;;21.68
76007;BMP280;64699;0.000;0.000;2022-12-07T12:44:38;99590.16;;;21.67
76007;BMP280;64699;0.000;0.000;2022-12-07T12:46:53;99587.72;;;21.71
76007;BMP280;64699;0.000;0.000;2022-12-07T12:51:49;99581.59;;;21.89
76007;BMP280;64699;0.000;0.000;2022-12-07T13:01:48;99578.19;;;22.17
76007;BMP280;64699;0.000;0.000;2022-12-07T13:04:17;99573.47;;;22.27
76007;BMP280;64699;0.000;0.000;2022-12-07T13:06:44;99569.53;;;22.30
76007;BMP280;64699;0.000;0.000;2022-12-07T13:09:22;99576.81;;;22.35
76007;BMP280;64699;0.000;0.000;2022-12-07T13:11:55;99573.19;;;22.42
76007;BMP280;64699;0.000;0.000;2022-12-07T13:17:12;99569.84;;;22.34
76007;BMP280;64699;0.000;0.000;2022-12-07T13:19:54;99568.38;;;22.33
76007;BMP280;64699;0.000;0.000;2022-12-07T13:27:40;99568.63;;;22.18
76007;BMP280;64699;0.000;0.000;2022-12-07T13:30:16;99568.50;;;22.26
76007;BMP280;64699;0.000;0.000;2022-12-07T13:32:57;99559.63;;;22.27
76007;BMP280;64699;0.000;0.000;2022-12-07T13:35:30;99564.91;;;22.06
76007;BMP280;64699;0.000;0.000;2022-12-07T13:37:58;99576.34;;;21.93
76007;BMP280;64699;0.000;0.000;2022-12-07T13:40:25;99567.34;;;21.93
76007;BMP280;64699;0.000;0.000;2022-12-07T13:42:58;99565.22;;;22.01
76007;BMP280;64699;0.000;0.000;2022-12-07T13:45:28;99559.69;;;22.01
76007;BMP280;64699;0.000;0.000;2022-12-07T13:50:41;99565.91;;;22.01
76007;BMP280;64699;0.000;0.000;2022-12-07T13:53:11;99575.69;;;22.02
76007;BMP280;64699;0.000;0.000;2022-12-07T13:55:37;99566.81;;;22.04
76007;BMP280;64699;0.000;0.000;2022-12-07T13:58:09;99566.69;;;22.11
76007;BMP280;64699;0.000;0.000;2022-12-07T14:00:35;99572.72;;;22.27
76007;BMP280;64699;0.000;0.000;2022-12-07T14:03:02;99565.41;;;22.31
76007;BMP280;64699;0.000;0.000;2022-12-07T14:05:28;99574.34;;;22.30
76007;BMP280;64699;0.000;0.000;2022-12-07T14:07:58;99569.84;;;22.34
76007;BMP280;64699;0.000;0.000;2022-12-07T14:10:25;99571.56;;;22.39
76007;BMP280;64699;0.000;0.000;2022-12-07T14:12:51;99568.31;;;22.24
76007;BMP280;64699;0.000;0.000;2022-12-07T14:15:28;99577.91;;;22.13
76007;BMP280;64699;0.000;0.000;2022-12-07T14:17:55;99572.03;;;22.09
76007;BMP280;64699;0.000;0.000;2022-12-07T14:20:31;99563.75;;;22.09
76007;BMP280;64699;0.000;0.000;2022-12-07T14:22:57;99565.75;;;21.99
76007;BMP280;64699;0.000;0.000;2022-12-07T14:25:23;99567.34;;;21.93
76007;BMP280;64699;0.000;0.000;2022-12-07T14:27:50;99576.06;;;21.89
76007;BMP280;64699;0.000;0.000;2022-12-07T14:30:17;99577.72;;;21.75
76007;BMP280;64699;0.000;0.000;2022-12-07T14:32:43;99571.78;;;21.79
76007;BMP280;64699;0.000;0.000;2022-12-07T14:35:14;99570.38;;;21.87
76007;BMP280;64699;0.000;0.000;2022-12-07T14:37:41;99576.53;;;21.95
76007;BMP280;64699;0.000;0.000;2022-12-07T14:40:07;99568.97;;;22.05
76007;BMP280;64699;0.000;0.000;2022-12-07T14:42:37;99568.63;;;22.18
76007;BMP280;64699;0.000;0.000;2022-12-07T14:45:03;99565.56;;;22.24
76007;BMP280;64699;0.000;0.000;2022-12-07T14:47:29;99578.81;;;22.25
76007;BMP280;64699;0.000;0.000;2022-12-07T14:49:54;99574.44;;;22.22
76007;BMP280;64699;0.000;0.000;2022-12-07T14:52:24;99579.75;;;22.37
76007;BMP280;64699;0.000;0.000;2022-12-07T14:54:52;99573.34;;;22.44
76007;BMP280;64699;0.000;0.000;2022-12-07T14:57:18;99574.19;;;22.37
76007;BMP280;64699;0.000;0.000;2022-12-07T14:59:43;99576.50;;;22.31
76007;BMP280;64699;0.000;0.000;2022-12-07T15:02:10;99579.25;;;22.31
76007;BMP280;64699;0.000;0.000;2022-12-07T15:04:37;99579.13;;;22.29
76007;BMP280;64699;0.000;0.000;2022-12-07T15:07:03;99581.75;;;22.27
76007;BMP280;64699;0.000;0.000;2022-12-07T15:09:29;99579.56;;;22.26
76007;BMP280;64699;0.000;0.000;2022-12-07T15:11:55;99572.66;;;22.17
76007;BMP280;64699;0.000;0.000;2022-12-07T15:14:22;99566.84;;;22.13
76007;BMP280;64699;0.000;0.000;2022-12-07T15:16:48;99577.06;;;22.20
76007;BMP280;64699;0.000;0.000;2022-12-07T15:19:14;99569.03;;;22.24
76007;BMP280;64699;0.000;0.000;2022-12-07T15:21:41;99575.81;;;22.31
76007;BMP280;64699;0.000;0.000;2022-12-07T15:24:08;99571.84;;;22.34
76007;BMP280;64699;0.000;0.000;2022-12-07T15:26:34;99573.91;;;22.33
76007;BMP280;64699;0.000;0.000;2022-12-07T15:29:06;99569.13;;;22.43
76007;BMP280;64699;0.000;0.000;2022-12-07T15:31:32;99569.84;;;22.34
76007;BMP280;64699;0.000;0.000;2022-12-07T15:33:59;99564.13;;;22.23
76007;BMP280;64699;0.000;0.000;2022-12-07T15:36:26;99564.13;;;22.23
76007;BMP280;64699;0.000;0.000;2022-12-07T15:38:52;99569.75;;;22.15
76007;BMP280;64699;0.000;0.000;2022-12-07T15:41:18;99561.16;;;22.11
76007;BMP280;64699;0.000;0.000;2022-12-07T15:43:51;99561.28;;;22.04
76007;BMP280;64699;0.000;0.000;2022-12-07T15:46:37;99561.41;;;21.96
76007;BMP280;64699;0.000;0.000;2022-12-07T15:49:05;99563.84;;;21.92
76007;BMP280;64699;0.000;0.000;2022-12-07T15:51:31;99565.44;;;21.86
76007;BMP280;64699;0.000;0.000;2022-12-07T15:53:57;99565.69;;;21.80
76007;BMP280;64699;0.000;0.000;2022-12-07T15:56:23;99566.66;;;21.75
76007;BMP280;64699;0.000;0.000;2022-12-07T15:58:49;99569.28;;;21.73